Time;durP1;ratioP1;P1;durP2;ratioP2;P2;SDS_P1;SDS_P2;PMS_P1;PMS_P2;Temp;Humidity;BMP_temperature;BMP_pressure;BME280_temperature;BME280_humidity;BME280_pressure;Samples;Min_cycle;Max_cycle;Signal;HPM_P1;HPM_P2
2023/03/21 00:02:04;;;;;;;71.95;46.40;;;9.30;99.90;;;;;;5030356;28;20095;-71
2023/03/21 00:04:30;;;;;;;61.40;43.80;;;9.40;99.90;;;;;;5031948;28;20136;-71
2023/03/21 00:06:56;;;;;;;70.38;48.08;;;9.40;99.90;;;;;;5033777;28;20045;-71
2023/03/21 00:09:22;;;;;;;56.95;43.85;;;9.30;99.90;;;;;;5030160;28;20052;-71
2023/03/21 00:11:48;;;;;;;56.75;42.40;;;9.40;99.90;;;;;;5030997;28;20046;-72
2023/03/21 00:14:18;;;;;;;51.35;40.33;;;9.40;99.90;;;;;;5028058;28;20076;-71
2023/03/21 00:16:49;;;;;;;57.50;43.45;;;9.40;99.90;;;;;;5028442;28;20053;-71
2023/03/21 00:19:16;;;;;;;64.88;45.95;;;9.40;99.90;;;;;;5026084;28;20038;-71
2023/03/21 00:21:42;;;;;;;70.07;46.35;;;9.40;99.90;;;;;;5026918;28;20050;-71
2023/03/21 00:24:08;;;;;;;59.53;43.55;;;9.40;99.90;;;;;;5023915;28;20452;-71
2023/03/21 00:26:34;;;;;;;57.10;43.97;;;9.40;99.90;;;;;;5024458;28;20167;-71
2023/03/21 00:29:00;;;;;;;59.00;44.10;;;9.40;99.90;;;;;;5028184;28;20077;-71
2023/03/21 00:31:26;;;;;;;64.05;45.90;;;9.40;99.90;;;;;;5023444;28;20129;-71
2023/03/21 00:33:51;;;;;;;49.28;43.40;;;9.40;99.90;;;;;;5026088;28;20042;-71
2023/03/21 00:36:17;;;;;;;59.60;46.05;;;9.40;99.90;;;;;;5028006;28;20881;-71
2023/03/21 00:38:43;;;;;;;56.67;44.60;;;9.50;99.90;;;;;;5029174;28;20041;-72
2023/03/21 00:41:11;;;;;;;61.03;46.50;;;9.40;99.90;;;;;;5027030;28;20392;-71
2023/03/21 00:43:36;;;;;;;72.70;49.72;;;9.40;99.90;;;;;;5024435;28;21828;-71
2023/03/21 00:46:03;;;;;;;54.20;44.17;;;9.40;99.90;;;;;;5017538;28;20041;-70
2023/03/21 00:48:29;;;;;;;59.85;45.47;;;9.40;99.90;;;;;;5045076;28;20041;-71
2023/03/21 00:50:56;;;;;;;70.40;49.17;;;9.40;99.90;;;;;;5029788;28;20396;-71
2023/03/21 00:53:22;;;;;;;69.57;52.03;;;9.40;99.90;;;;;;5024935;28;20425;-71
2023/03/21 00:55:48;;;;;;;63.47;48.60;;;9.40;99.90;;;;;;5025006;28;20038;-71
2023/03/21 00:58:14;;;;;;;62.40;46.20;;;9.40;99.90;;;;;;5045103;28;20400;-71
2023/03/21 01:00:40;;;;;;;79.82;52.35;;;9.50;99.90;;;;;;5027452;28;20148;-71
2023/03/21 01:03:09;;;;;;;97.10;57.17;;;9.50;99.90;;;;;;5025371;28;20053;-71
2023/03/21 01:08:26;;;;;;;86.43;56.60;;;9.50;99.90;;;;;;5028851;28;20431;-70
2023/03/21 01:10:53;;;;;;;74.45;52.83;;;9.50;99.90;;;;;;5024053;28;20073;-70
2023/03/21 01:13:21;;;;;;;70.68;53.33;;;9.50;99.90;;;;;;5021219;28;20080;-70
2023/03/21 01:15:50;;;;;;;68.82;52.08;;;9.50;99.90;;;;;;5025180;28;20046;-71
2023/03/21 01:18:18;;;;;;;77.35;54.15;;;9.50;99.90;;;;;;5026112;28;20038;-70
2023/03/21 01:20:46;;;;;;;76.13;53.95;;;9.50;99.90;;;;;;5028629;28;20049;-71
2023/03/21 01:23:13;;;;;;;74.80;54.28;;;9.50;99.90;;;;;;5028472;28;20084;-71
2023/03/21 01:25:39;;;;;;;;;;;9.50;99.90;;;;;;5027744;28;20048;-71
2023/03/21 01:28:05;;;;;;;78.22;54.60;;;9.50;99.90;;;;;;5026505;28;20392;-71
2023/03/21 01:30:31;;;;;;;76.05;51.65;;;9.50;99.90;;;;;;5026023;28;20065;-71
2023/03/21 01:32:57;;;;;;;70.03;53.53;;;9.50;99.90;;;;;;5021006;28;20049;-71
2023/03/21 01:35:23;;;;;;;80.75;53.63;;;9.50;99.90;;;;;;5024379;28;20041;-71
2023/03/21 01:37:49;;;;;;;73.47;53.25;;;9.40;99.90;;;;;;5024203;28;20053;-71
2023/03/21 01:40:21;;;;;;;64.25;48.70;;;9.50;99.90;;;;;;5028596;28;20073;-71
2023/03/21 01:42:47;;;;;;;68.38;51.13;;;9.60;99.90;;;;;;5030134;28;20459;-71
2023/03/21 01:45:50;;;;;;;57.72;47.03;;;9.60;99.90;;;;;;5034331;28;20085;-71
2023/03/21 01:48:18;;;;;;;53.97;42.63;;;9.60;99.90;;;;;;5022844;28;20072;-71
2023/03/21 01:50:45;;;;;;;58.90;45.45;;;9.50;99.90;;;;;;5027091;28;20120;-71
2023/03/21 01:53:12;;;;;;;56.47;45.17;;;9.60;99.90;;;;;;5028744;28;20053;-71
2023/03/21 01:55:38;;;;;;;53.05;43.50;;;9.60;99.90;;;;;;5022125;28;20037;-72
2023/03/21 01:58:07;;;;;;;57.33;43.90;;;9.50;99.90;;;;;;5028121;28;20053;-71
2023/03/21 02:00:35;;;;;;;53.20;43.22;;;9.60;99.90;;;;;;5030266;28;20085;-71
2023/03/21 02:03:05;;;;;;;50.70;43.17;;;9.60;99.90;;;;;;5026201;28;20049;-71
2023/03/21 02:06:01;;;;;;;54.88;43.47;;;9.60;99.90;;;;;;5028653;28;20465;-71
2023/03/21 02:08:29;;;;;;;53.03;42.27;;;9.60;99.90;;;;;;5032088;28;20121;-71
2023/03/21 02:10:55;;;;;;;60.13;45.10;;;9.60;99.90;;;;;;5028281;28;20311;-71
2023/03/21 02:13:21;;;;;;;57.47;44.33;;;9.60;99.90;;;;;;5033150;28;20041;-72
2023/03/21 02:16:19;;;;;;;49.53;40.20;;;9.60;99.90;;;;;;5031098;28;20045;-71
2023/03/21 02:19:18;;;;;;;47.78;40.00;;;9.60;99.90;;;;;;5015175;28;20096;-71
2023/03/21 02:22:06;;;;;;;53.22;40.58;;;9.60;99.90;;;;;;4996697;28;20053;-71
2023/03/21 02:24:52;;;;;;;49.28;39.92;;;9.60;99.90;;;;;;5031522;28;20073;-71
2023/03/21 02:27:23;;;;;;;44.92;37.85;;;9.60;99.90;;;;;;5031282;28;20049;-71
2023/03/21 02:30:24;;;;;;;45.53;37.15;;;9.60;99.90;;;;;;5028430;28;20037;-71
2023/03/21 02:33:24;;;;;;;41.28;35.00;;;9.60;99.90;;;;;;5016345;28;20049;-71
2023/03/21 02:36:13;;;;;;;38.78;33.85;;;9.60;99.90;;;;;;5023059;28;20606;-72
2023/03/21 02:38:52;;;;;;;40.72;34.15;;;9.60;99.90;;;;;;5026161;28;20049;-72
2023/03/21 02:41:35;;;;;;;44.25;35.25;;;9.60;99.90;;;;;;5028919;28;20050;-72
2023/03/21 02:44:09;;;;;;;38.75;33.60;;;9.60;99.90;;;;;;5030516;28;20492;-72
2023/03/21 02:46:45;;;;;;;39.08;31.80;;;9.70;99.90;;;;;;5032200;28;20045;-72
2023/03/21 02:49:40;;;;;;;40.78;32.67;;;9.70;99.90;;;;;;5033454;28;20053;-72
2023/03/21 02:52:10;;;;;;;40.67;33.05;;;9.70;99.90;;;;;;5027924;28;20050;-72
2023/03/21 02:54:37;;;;;;;41.47;33.33;;;9.60;99.90;;;;;;5025602;28;20493;-72
2023/03/21 02:57:03;;;;;;;43.72;34.17;;;9.70;99.90;;;;;;5030487;28;20045;-72
2023/03/21 02:59:30;;;;;;;46.37;36.37;;;9.70;99.90;;;;;;5030486;28;20124;-72
2023/03/21 03:01:57;;;;;;;46.00;35.75;;;9.70;99.90;;;;;;5029567;28;20061;-72
2023/03/21 03:04:26;;;;;;;;;;;9.60;99.90;;;;;;5027162;28;20067;-72
2023/03/21 03:07:30;;;;;;;45.67;36.00;;;9.60;99.90;;;;;;5029708;28;19987;-72
2023/03/21 03:10:05;;;;;;;45.58;36.30;;;9.70;99.90;;;;;;5026512;28;20400;-72
2023/03/21 03:12:48;;;;;;;50.88;38.58;;;9.60;99.90;;;;;;5030680;28;20042;-72
2023/03/21 03:15:21;;;;;;;49.03;37.17;;;9.60;99.90;;;;;;5020909;28;20175;-72
2023/03/21 03:18:25;;;;;;;63.10;42.90;;;9.60;99.90;;;;;;5027399;28;20099;-72
2023/03/21 03:21:19;;;;;;;57.65;44.35;;;9.60;99.90;;;;;;5027960;28;20138;-71
2023/03/21 03:23:54;;;;;;;70.57;49.30;;;9.60;99.90;;;;;;5023233;28;20088;-72
2023/03/21 03:26:25;;;;;;;73.88;50.17;;;9.70;99.90;;;;;;5027578;28;20072;-71
2023/03/21 03:28:55;;;;;;;63.17;47.80;;;9.60;99.90;;;;;;5028121;28;20419;-72
2023/03/21 03:31:25;;;;;;;70.70;50.67;;;9.60;99.90;;;;;;5031125;28;20042;-72
2023/03/21 03:33:55;;;;;;;67.63;49.45;;;9.60;99.90;;;;;;5024372;28;20162;-72
2023/03/21 03:36:29;;;;;;;72.60;51.72;;;9.60;99.90;;;;;;5025509;28;20120;-72
2023/03/21 03:38:56;;;;;;;71.95;49.28;;;9.60;99.90;;;;;;5029143;28;20056;-72
2023/03/21 03:41:25;;;;;;;74.53;49.97;;;9.60;99.90;;;;;;5030535;28;20134;-72
2023/03/21 03:43:55;;;;;;;67.07;49.03;;;9.60;99.90;;;;;;5027063;28;20566;-72
2023/03/21 03:46:32;;;;;;;65.50;48.65;;;9.60;99.90;;;;;;5030281;28;20064;-72
2023/03/21 03:49:06;;;;;;;78.35;50.70;;;9.60;99.90;;;;;;5030363;28;20044;-72
2023/03/21 03:51:52;;;;;;;64.80;49.67;;;9.60;99.90;;;;;;5028660;28;20519;-72
2023/03/21 03:54:27;;;;;;;73.22;50.67;;;9.60;99.90;;;;;;5025616;28;20055;-72
2023/03/21 03:56:53;;;;;;;70.50;49.95;;;9.60;99.90;;;;;;5031471;28;20041;-72
2023/03/21 03:59:20;;;;;;;69.85;48.70;;;9.60;99.90;;;;;;5029114;28;20119;-72
2023/03/21 04:01:47;;;;;;;63.60;47.22;;;9.60;99.90;;;;;;5026541;28;20077;-72
2023/03/21 04:04:15;;;;;;;77.90;50.13;;;9.60;99.90;;;;;;5029307;28;20045;-72
2023/03/21 04:06:44;;;;;;;64.43;46.90;;;9.60;99.90;;;;;;5030752;28;20064;-72
2023/03/21 04:09:10;;;;;;;62.70;46.95;;;9.60;99.90;;;;;;5028026;28;20049;-72
2023/03/21 04:11:36;;;;;;;60.80;45.03;;;9.60;99.90;;;;;;5029910;28;20049;-72
2023/03/21 04:14:02;;;;;;;60.28;43.92;;;9.60;99.90;;;;;;5030053;28;20380;-72
2023/03/21 04:16:30;;;;;;;61.70;44.40;;;9.60;99.90;;;;;;5031754;28;20137;-72
2023/03/21 04:18:55;;;;;;;61.13;45.05;;;9.60;99.90;;;;;;5028795;28;20095;-72
2023/03/21 04:21:21;;;;;;;65.47;46.17;;;9.60;99.90;;;;;;5028830;28;21055;-72
2023/03/21 04:23:47;;;;;;;57.33;43.85;;;9.60;99.90;;;;;;5025287;28;20432;-72
2023/03/21 04:26:12;;;;;;;61.95;44.22;;;9.60;99.90;;;;;;5030699;28;20084;-72
2023/03/21 04:28:38;;;;;;;68.50;47.03;;;9.60;99.90;;;;;;5026232;28;20053;-72
2023/03/21 04:31:05;;;;;;;70.85;46.65;;;9.60;99.90;;;;;;5030564;28;20049;-72
2023/03/21 04:33:31;;;;;;;74.32;49.20;;;9.60;99.90;;;;;;5028687;28;20073;-72
2023/03/21 04:35:57;;;;;;;58.95;44.28;;;9.60;99.90;;;;;;5023254;28;20080;-72
2023/03/21 04:38:29;;;;;;;70.47;48.15;;;9.60;99.90;;;;;;5028605;28;20049;-72
2023/03/21 04:40:55;;;;;;;65.70;46.13;;;9.60;99.90;;;;;;5025435;28;20113;-72
2023/03/21 04:43:22;;;;;;;67.45;46.35;;;9.60;99.90;;;;;;5029307;28;20041;-72
2023/03/21 04:45:49;;;;;;;58.83;44.28;;;9.60;99.90;;;;;;5025202;28;20053;-72
2023/03/21 04:48:16;;;;;;;63.00;45.13;;;9.60;99.90;;;;;;5034283;28;20140;-72
2023/03/21 04:50:43;;;;;;;;;;;9.60;99.90;;;;;;5030241;28;20163;-72
2023/03/21 04:53:08;;;;;;;64.30;45.33;;;9.50;99.90;;;;;;5026032;28;19955;-72
2023/03/21 04:55:35;;;;;;;64.43;44.85;;;9.50;99.90;;;;;;5018357;28;20426;-71
2023/03/21 04:58:02;;;;;;;56.50;43.50;;;9.60;99.90;;;;;;5028174;28;20060;-71
2023/03/21 05:00:27;;;;;;;65.97;44.17;;;9.60;99.90;;;;;;5029779;28;20044;-71
2023/03/21 05:02:53;;;;;;;60.13;43.58;;;9.60;99.90;;;;;;5022509;28;20053;-71
2023/03/21 05:05:19;;;;;;;72.60;45.83;;;9.50;99.90;;;;;;5028509;28;20123;-71
2023/03/21 05:07:44;;;;;;;65.22;43.40;;;9.50;99.90;;;;;;5025649;28;20038;-71
2023/03/21 05:10:11;;;;;;;54.97;40.67;;;9.50;99.90;;;;;;5025041;28;20053;-71
2023/03/21 05:12:37;;;;;;;63.57;41.87;;;9.60;99.90;;;;;;5027489;28;20045;-71
2023/03/21 05:15:04;;;;;;;55.53;41.33;;;9.60;99.90;;;;;;5024067;28;20136;-71
2023/03/21 05:17:30;;;;;;;61.77;41.50;;;9.50;99.90;;;;;;5028676;28;20045;-71
2023/03/21 05:19:55;;;;;;;57.65;40.33;;;9.50;99.90;;;;;;5027316;28;21118;-70
2023/03/21 05:22:23;;;;;;;56.40;40.33;;;9.50;99.90;;;;;;5024244;28;20234;-71
2023/03/21 05:24:49;;;;;;;65.40;42.70;;;9.60;99.90;;;;;;5027531;28;20077;-71
2023/03/21 05:27:34;;;;;;;56.17;40.78;;;9.60;99.90;;;;;;5024394;28;20488;-71
2023/03/21 05:30:07;;;;;;;52.92;39.17;;;9.50;99.90;;;;;;5018824;28;20132;-71
2023/03/21 05:32:33;;;;;;;64.05;42.67;;;9.50;99.90;;;;;;5022540;28;20057;-71
2023/03/21 05:34:59;;;;;;;60.55;41.15;;;9.50;99.90;;;;;;5027396;28;20072;-71
2023/03/21 05:37:25;;;;;;;50.97;37.88;;;9.50;99.90;;;;;;5023709;28;20045;-71
2023/03/21 05:39:53;;;;;;;53.08;38.00;;;9.50;99.90;;;;;;5027783;28;20075;-71
2023/03/21 05:42:19;;;;;;;52.05;38.47;;;9.50;99.90;;;;;;5030332;28;20374;-71
2023/03/21 05:44:45;;;;;;;66.00;39.92;;;9.60;99.90;;;;;;5028795;28;20605;-71
2023/03/21 05:47:12;;;;;;;52.67;38.55;;;9.50;99.90;;;;;;5028634;28;20048;-71
2023/03/21 05:49:38;;;;;;;57.47;38.70;;;9.50;99.90;;;;;;5035035;28;20040;-71
2023/03/21 05:52:04;;;;;;;45.90;35.35;;;9.50;99.90;;;;;;5033715;28;20136;-71
2023/03/21 05:54:30;;;;;;;48.75;35.42;;;9.50;99.90;;;;;;5024375;28;20037;-71
2023/03/21 05:56:55;;;;;;;46.42;34.80;;;9.50;99.90;;;;;;5027678;28;20124;-71
2023/03/21 05:59:21;;;;;;;47.67;36.28;;;9.50;99.90;;;;;;5031966;28;20157;-71
2023/03/21 06:01:47;;;;;;;57.05;37.85;;;9.50;99.90;;;;;;5025824;28;20144;-71
2023/03/21 06:04:13;;;;;;;51.28;36.55;;;9.50;99.90;;;;;;5030127;28;20089;-70
2023/03/21 06:06:39;;;;;;;44.03;35.08;;;9.50;99.90;;;;;;5031916;28;20102;-70
2023/03/21 06:09:05;;;;;;;41.75;33.75;;;9.50;99.90;;;;;;5032901;28;20037;-70
2023/03/21 06:11:34;;;;;;;46.88;35.00;;;9.50;99.90;;;;;;5032655;28;20049;-71
2023/03/21 06:14:00;;;;;;;47.47;35.13;;;9.50;99.90;;;;;;5024807;28;20030;-70
2023/03/21 06:16:27;;;;;;;46.78;35.25;;;9.60;99.90;;;;;;5029070;28;20536;-71
2023/03/21 06:18:54;;;;;;;46.72;36.30;;;9.50;99.90;;;;;;5032214;28;20041;-70
2023/03/21 06:21:20;;;;;;;44.00;34.28;;;9.50;99.90;;;;;;5032330;28;20045;-70
2023/03/21 06:23:46;;;;;;;46.17;36.72;;;9.50;99.90;;;;;;5025957;28;20046;-70
2023/03/21 06:26:12;;;;;;;48.90;36.25;;;9.60;99.90;;;;;;5032031;28;20127;-71
2023/03/21 06:28:38;;;;;;;45.50;35.10;;;9.60;99.90;;;;;;5026754;28;22065;-71
2023/03/21 06:31:04;;;;;;;56.72;38.92;;;9.50;99.90;;;;;;5028957;28;20137;-70
2023/03/21 06:33:30;;;;;;;49.22;38.33;;;9.60;99.90;;;;;;5027126;28;20045;-70
2023/03/21 06:35:57;;;;;;;59.58;41.25;;;9.50;99.90;;;;;;5028583;28;20072;-71
2023/03/21 06:38:24;;;;;;;58.40;40.58;;;9.60;99.90;;;;;;5025533;28;20050;-71
2023/03/21 06:40:50;;;;;;;44.70;36.63;;;9.60;99.90;;;;;;5024831;28;20571;-70
2023/03/21 06:43:16;;;;;;;54.85;39.05;;;9.60;99.90;;;;;;5029331;28;20084;-70
2023/03/21 06:45:43;;;;;;;50.45;37.95;;;9.60;99.90;;;;;;5027221;28;20050;-71
2023/03/21 06:48:08;;;;;;;57.45;39.78;;;9.60;99.90;;;;;;5032384;28;20133;-71
2023/03/21 06:50:34;;;;;;;50.28;36.60;;;9.60;99.90;;;;;;5026011;28;20152;-70
2023/03/21 06:53:01;;;;;;;51.67;37.58;;;9.60;99.90;;;;;;5026231;28;20033;-70
2023/03/21 06:55:27;;;;;;;44.78;35.03;;;9.60;99.90;;;;;;5029647;28;20089;-70
2023/03/21 06:57:55;;;;;;;44.08;33.78;;;9.60;99.90;;;;;;5027650;28;20121;-72
2023/03/21 07:00:21;;;;;;;47.92;34.95;;;9.60;99.90;;;;;;5014648;28;20122;-71
2023/03/21 07:02:47;;;;;;;46.33;33.92;;;9.60;99.90;;;;;;5021819;28;20052;-70
2023/03/21 07:05:13;;;;;;;44.08;31.88;;;9.60;99.90;;;;;;5024009;28;20049;-70
2023/03/21 07:07:39;;;;;;;38.85;30.60;;;9.60;99.90;;;;;;5022260;28;20038;-70
2023/03/21 07:10:06;;;;;;;38.25;30.10;;;9.70;99.90;;;;;;5023776;28;20057;-70
2023/03/21 07:12:34;;;;;;;39.50;30.00;;;9.70;99.90;;;;;;5025370;28;20030;-70
2023/03/21 07:15:00;;;;;;;39.58;30.83;;;9.70;99.90;;;;;;5027525;28;20049;-70
2023/03/21 07:17:26;;;;;;;36.67;29.85;;;9.60;99.90;;;;;;5021603;28;20045;-70
2023/03/21 07:19:52;;;;;;;41.65;30.88;;;9.70;99.90;;;;;;5020637;28;20053;-70
2023/03/21 07:22:18;;;;;;;36.95;29.55;;;9.70;99.90;;;;;;5028760;28;20049;-70
2023/03/21 07:24:47;;;;;;;35.65;29.42;;;9.70;99.90;;;;;;5025133;28;20180;-70
2023/03/21 07:27:17;;;;;;;36.92;30.63;;;9.70;99.90;;;;;;5024056;28;20049;-70
2023/03/21 07:29:43;;;;;;;37.85;29.88;;;9.70;99.90;;;;;;5027830;28;20091;-70
2023/03/21 07:32:10;;;;;;;37.90;30.05;;;9.70;99.90;;;;;;5025535;28;20596;-70
2023/03/21 07:34:36;;;;;;;34.67;28.45;;;9.70;99.90;;;;;;5044981;28;20077;-70
2023/03/21 07:37:03;;;;;;;36.58;27.23;;;9.70;99.90;;;;;;5026763;28;20077;-70
2023/03/21 07:39:29;;;;;;;36.17;28.17;;;9.70;99.90;;;;;;5024051;28;20053;-70
2023/03/21 07:41:54;;;;;;;36.35;28.45;;;9.70;99.90;;;;;;5026487;28;20057;-70
2023/03/21 07:44:24;;;;;;;28.90;25.70;;;9.70;99.90;;;;;;5029913;28;20041;-70
2023/03/21 07:46:49;;;;;;;35.22;25.83;;;9.70;99.90;;;;;;5029506;28;20042;-70
2023/03/21 07:49:15;;;;;;;32.58;25.02;;;9.70;99.90;;;;;;5025078;28;20033;-70
2023/03/21 07:51:41;;;;;;;31.20;25.25;;;9.70;99.90;;;;;;5030649;28;20489;-70
2023/03/21 07:54:06;;;;;;;31.05;25.73;;;9.70;99.90;;;;;;5023843;28;20041;-70
2023/03/21 07:56:32;;;;;;;38.40;26.77;;;9.80;99.90;;;;;;5027926;28;20099;-70
2023/03/21 07:58:58;;;;;;;30.42;25.08;;;9.70;99.90;;;;;;5026767;28;20037;-70
2023/03/21 08:01:25;;;;;;;35.70;26.55;;;9.80;99.90;;;;;;5025045;28;20390;-70
2023/03/21 08:03:52;;;;;;;36.78;26.27;;;9.80;99.90;;;;;;5028425;28;20049;-70
2023/03/21 08:06:21;;;;;;;32.13;25.17;;;9.80;99.90;;;;;;5026599;28;20056;-70
2023/03/21 08:08:47;;;;;;;33.47;26.23;;;9.80;99.90;;;;;;5020356;28;20040;-70
2023/03/21 08:11:13;;;;;;;34.58;26.60;;;9.80;99.90;;;;;;5023677;28;20041;-70
2023/03/21 08:13:39;;;;;;;31.83;24.80;;;9.80;99.90;;;;;;5019231;28;20092;-71
2023/03/21 08:16:06;;;;;;;33.17;25.73;;;9.80;99.90;;;;;;5021759;28;20053;-72
2023/03/21 08:18:32;;;;;;;30.50;25.13;;;9.80;99.90;;;;;;5018423;28;20045;-70
2023/03/21 08:20:57;;;;;;;31.80;23.77;;;9.80;99.90;;;;;;5020106;28;20498;-69
2023/03/21 08:23:24;;;;;;;33.42;24.60;;;9.90;99.90;;;;;;5023072;28;20037;-69
2023/03/21 08:25:51;;;;;;;28.83;23.08;;;9.90;99.90;;;;;;5024206;28;20492;-68
2023/03/21 08:28:17;;;;;;;33.03;24.20;;;10.00;99.90;;;;;;5024954;28;20045;-69
2023/03/21 08:30:43;;;;;;;30.40;22.67;;;9.90;99.90;;;;;;5027109;28;20049;-69
2023/03/21 08:33:09;;;;;;;32.75;22.60;;;10.00;99.90;;;;;;5025919;28;20103;-67
2023/03/21 08:35:35;;;;;;;33.38;22.50;;;10.00;99.90;;;;;;5026339;28;20037;-68
2023/03/21 08:38:04;;;;;;;32.17;22.77;;;10.00;99.90;;;;;;5023937;28;20045;-68
2023/03/21 08:40:30;;;;;;;31.23;23.10;;;10.00;99.90;;;;;;5030198;28;20041;-68
2023/03/21 08:42:56;;;;;;;30.88;23.08;;;10.00;99.90;;;;;;5028142;28;20044;-68
2023/03/21 08:45:23;;;;;;;31.85;22.23;;;10.10;99.90;;;;;;5021137;28;20125;-69
2023/03/21 08:47:49;;;;;;;32.97;23.77;;;10.00;99.90;;;;;;5028096;28;20041;-68
2023/03/21 08:50:18;;;;;;;30.67;22.80;;;10.10;99.90;;;;;;5030438;28;20046;-67
2023/03/21 08:52:44;;;;;;;30.25;22.67;;;10.10;99.90;;;;;;5016021;28;20041;-69
2023/03/21 08:55:10;;;;;;;30.88;21.55;;;10.10;99.90;;;;;;5021793;28;20042;-70
2023/03/21 08:57:36;;;;;;;29.33;21.27;;;10.20;99.90;;;;;;5027677;28;20048;-69
2023/03/21 09:00:13;;;;;;;34.80;22.17;;;10.20;99.90;;;;;;5027286;28;20042;-69
2023/03/21 09:02:43;;;;;;;32.88;21.73;;;10.20;99.90;;;;;;5029396;28;20726;-69
2023/03/21 09:05:13;;;;;;;29.30;19.65;;;10.20;99.90;;;;;;5030514;28;20264;-71
2023/03/21 09:07:40;;;;;;;32.67;21.10;;;10.20;99.90;;;;;;5030529;28;20038;-70
2023/03/21 09:10:09;;;;;;;29.30;19.77;;;10.30;99.90;;;;;;5023923;28;20507;-68
2023/03/21 09:12:35;;;;;;;31.90;18.98;;;10.30;99.90;;;;;;5027692;28;20503;-69
2023/03/21 09:15:01;;;;;;;29.17;19.38;;;10.40;99.90;;;;;;5025003;28;20044;-67
2023/03/21 09:17:31;;;;;;;30.52;19.00;;;10.30;99.90;;;;;;5028728;28;20120;-68
2023/03/21 09:19:59;;;;;;;28.88;19.27;;;10.30;99.90;;;;;;5028504;28;20128;-68
2023/03/21 09:22:26;;;;;;;28.58;18.95;;;10.40;99.90;;;;;;5030500;28;20064;-69
2023/03/21 09:24:52;;;;;;;28.45;18.83;;;10.30;99.90;;;;;;5026366;28;20494;-69
2023/03/21 09:27:21;;;;;;;26.70;18.23;;;10.40;99.90;;;;;;5027605;28;20472;-68
2023/03/21 09:29:48;;;;;;;33.15;20.27;;;10.40;99.90;;;;;;5028372;28;20046;-68
2023/03/21 09:32:15;;;;;;;28.60;19.23;;;10.40;99.90;;;;;;5045418;28;20374;-69
2023/03/21 09:34:41;;;;;;;32.53;20.05;;;10.40;99.90;;;;;;5027264;28;20041;-68
2023/03/21 09:37:12;;;;;;;29.13;19.00;;;10.50;99.90;;;;;;5029823;28;20532;-69
2023/03/21 09:39:39;;;;;;;28.17;18.88;;;10.50;99.90;;;;;;5027826;28;20085;-68
2023/03/21 09:42:30;;;;;;;29.42;18.23;;;10.50;99.90;;;;;;5027151;28;20041;-68
2023/03/21 09:45:05;;;;;;;26.40;18.42;;;10.50;99.90;;;;;;5019501;28;20171;-69
2023/03/21 09:47:44;;;;;;;28.02;19.35;;;10.50;99.90;;;;;;5029258;28;20060;-74
2023/03/21 09:50:32;;;;;;;26.55;19.55;;;10.50;99.90;;;;;;5028303;28;20048;-69
2023/03/21 09:53:12;;;;;;;27.00;18.20;;;10.60;99.90;;;;;;5022705;28;20045;-69
2023/03/21 09:55:40;;;;;;;31.23;19.23;;;10.60;99.90;;;;;;5027015;28;20037;-70
2023/03/21 09:58:30;;;;;;;29.33;19.35;;;10.60;99.90;;;;;;5025508;28;20088;-68
2023/03/21 10:01:25;;;;;;;28.08;19.50;;;10.60;99.90;;;;;;5017931;28;20057;-68
2023/03/21 10:03:54;;;;;;;29.88;19.88;;;10.60;99.90;;;;;;5029119;28;20041;-68
2023/03/21 10:06:28;;;;;;;27.33;19.42;;;10.60;99.90;;;;;;5020378;28;20180;-69
2023/03/21 10:09:05;;;;;;;26.80;19.60;;;10.60;99.90;;;;;;5025973;28;20519;-68
2023/03/21 10:11:47;;;;;;;28.40;20.20;;;10.60;99.90;;;;;;5025913;28;20049;-69
2023/03/21 10:14:17;;;;;;;28.35;19.80;;;10.60;99.90;;;;;;5025689;28;20629;-68
2023/03/21 10:16:47;;;;;;;25.27;20.35;;;10.70;99.90;;;;;;5017475;28;20077;-69
2023/03/21 10:19:18;;;;;;;29.48;20.45;;;10.70;99.90;;;;;;5023868;28;20045;-68
2023/03/21 10:21:46;;;;;;;28.67;20.05;;;10.70;99.90;;;;;;5021026;28;20055;-71
2023/03/21 10:24:16;;;;;;;27.73;20.35;;;10.70;99.90;;;;;;5026199;28;20493;-69
2023/03/21 10:26:44;;;;;;;29.60;20.50;;;10.70;99.90;;;;;;5030446;28;20120;-70
2023/03/21 10:29:12;;;;;;;27.13;20.52;;;10.70;99.90;;;;;;5033246;28;20042;-70
2023/03/21 10:31:40;;;;;;;25.17;19.50;;;10.70;99.90;;;;;;5029218;28;20068;-70
2023/03/21 10:34:25;;;;;;;26.25;20.27;;;10.70;99.90;;;;;;5032800;28;20041;-70
2023/03/21 10:36:51;;;;;;;28.35;20.58;;;10.70;99.90;;;;;;5031632;28;20056;-70
2023/03/21 10:39:39;;;;;;;25.35;20.02;;;10.70;99.90;;;;;;5032758;28;20041;-70
2023/03/21 10:42:05;;;;;;;25.50;19.70;;;10.70;99.90;;;;;;5030562;28;20116;-70
2023/03/21 10:44:34;;;;;;;26.60;19.88;;;10.80;99.90;;;;;;5033588;28;20119;-70
2023/03/21 10:47:06;;;;;;;27.63;20.88;;;10.80;99.90;;;;;;5028287;28;20060;-70
2023/03/21 10:49:32;;;;;;;30.33;21.10;;;10.80;99.90;;;;;;5029978;28;20033;-70
2023/03/21 10:52:03;;;;;;;26.48;19.90;;;10.80;99.90;;;;;;5033241;28;20374;-70
2023/03/21 10:54:32;;;;;;;27.85;20.00;;;10.80;99.90;;;;;;5032223;28;20068;-70
2023/03/21 10:57:03;;;;;;;27.40;21.27;;;10.80;99.90;;;;;;5029338;28;20045;-70
2023/03/21 10:59:43;;;;;;;24.42;19.33;;;10.90;99.90;;;;;;5032122;28;20068;-70
2023/03/21 11:02:19;;;;;;;27.67;20.83;;;10.80;99.90;;;;;;5031204;28;20505;-70
2023/03/21 11:04:45;;;;;;;29.50;20.30;;;10.90;99.90;;;;;;5032768;28;20049;-70
2023/03/21 11:07:14;;;;;;;26.42;19.58;;;10.90;99.90;;;;;;5029771;28;20041;-70
2023/03/21 11:09:55;;;;;;;25.65;18.70;;;10.90;99.90;;;;;;5031004;28;20097;-70
2023/03/21 11:12:29;;;;;;;24.88;18.23;;;10.90;99.90;;;;;;5033209;28;20092;-70
2023/03/21 11:14:56;;;;;;;22.98;16.80;;;10.90;99.90;;;;;;5027716;28;20064;-71
2023/03/21 11:17:30;;;;;;;23.13;15.80;;;11.00;99.90;;;;;;5031975;28;20049;-71
2023/03/21 11:20:04;;;;;;;22.48;17.33;;;11.00;99.90;;;;;;5031571;28;20477;-70
2023/03/21 11:22:41;;;;;;;22.52;15.88;;;10.90;99.90;;;;;;5030303;28;20497;-70
2023/03/21 11:25:11;;;;;;;21.42;16.05;;;11.00;99.90;;;;;;5032233;28;20116;-70
2023/03/21 11:27:51;;;;;;;22.70;15.85;;;11.00;99.90;;;;;;5032003;28;20052;-71
2023/03/21 11:30:22;;;;;;;19.23;12.73;;;11.10;99.90;;;;;;5024745;28;20040;-70
2023/03/21 11:32:53;;;;;;;18.42;12.95;;;11.10;99.90;;;;;;5022499;28;20489;-70
2023/03/21 11:35:23;;;;;;;19.23;12.50;;;11.10;99.90;;;;;;5027267;28;20045;-70
2023/03/21 11:37:54;;;;;;;18.17;12.18;;;11.10;99.90;;;;;;5028695;28;20037;-70
2023/03/21 11:40:32;;;;;;;17.33;11.77;;;11.20;99.90;;;;;;5029413;28;20061;-70
2023/03/21 11:43:00;;;;;;;18.60;12.90;;;11.20;99.90;;;;;;5028259;28;20124;-70
2023/03/21 11:45:34;;;;;;;20.27;12.15;;;11.20;99.90;;;;;;5026753;28;20037;-73
2023/03/21 11:48:13;;;;;;;17.05;11.75;;;11.30;99.90;;;;;;5025033;28;20086;-71
2023/03/21 11:50:45;;;;;;;20.85;12.65;;;11.40;99.90;;;;;;5026504;28;20120;-67
2023/03/21 11:53:25;;;;;;;17.13;11.70;;;11.50;99.90;;;;;;5022521;28;20053;-68
2023/03/21 11:56:08;;;;;;;18.65;11.98;;;11.50;99.90;;;;;;5030309;28;20052;-69
2023/03/21 11:58:55;;;;;;;15.70;11.52;;;11.60;99.90;;;;;;5017591;28;20053;-68
2023/03/21 12:01:31;;;;;;;15.70;11.23;;;11.70;99.90;;;;;;5024966;28;20144;-67
2023/03/21 12:04:33;;;;;;;16.17;10.90;;;11.70;99.90;;;;;;5027507;28;20420;-68
2023/03/21 12:07:11;;;;;;;15.38;10.23;;;11.70;99.90;;;;;;5027360;28;20134;-69
2023/03/21 12:09:41;;;;;;;13.93;10.20;;;11.70;99.90;;;;;;5026716;28;20485;-68
2023/03/21 12:12:16;;;;;;;15.27;9.70;;;11.70;99.90;;;;;;5027034;28;20046;-71
2023/03/21 12:15:05;;;;;;;13.48;10.10;;;11.70;99.90;;;;;;5029310;28;20056;-70
2023/03/21 12:18:05;;;;;;;15.15;10.10;;;11.70;99.90;;;;;;5030417;28;20049;-69
2023/03/21 12:20:52;;;;;;;17.05;9.43;;;11.70;99.90;;;;;;4975984;28;20050;-68
2023/03/21 12:23:29;;;;;;;14.35;10.13;;;11.80;99.90;;;;;;5028592;28;20113;-67
2023/03/21 12:26:37;;;;;;;16.05;10.20;;;11.80;99.90;;;;;;5015656;28;20524;-68
2023/03/21 12:30:06;;;;;;;14.52;9.93;;;11.90;99.90;;;;;;5028917;28;20535;-69
2023/03/21 12:33:16;;;;;;;17.42;10.27;;;12.00;99.90;;;;;;4997030;28;20205;-70
2023/03/21 12:35:49;;;;;;;17.17;10.65;;;12.10;99.90;;;;;;4932274;29;20063;-68
2023/03/21 12:38:34;;;;;;;16.48;9.80;;;12.10;99.90;;;;;;4960795;28;20065;-67
2023/03/21 12:41:21;;;;;;;17.88;10.38;;;12.20;99.90;;;;;;5002567;28;20068;-67
2023/03/21 12:43:59;;;;;;;14.18;9.60;;;12.30;99.90;;;;;;5015580;28;20115;-68
2023/03/21 12:46:35;;;;;;;12.93;9.18;;;12.30;99.90;;;;;;5020996;28;20560;-69
2023/03/21 12:49:19;;;;;;;13.15;9.18;;;12.30;99.90;;;;;;5017184;28;20136;-69
2023/03/21 12:51:53;;;;;;;13.32;9.35;;;12.30;99.90;;;;;;5028087;28;20073;-70
2023/03/21 12:54:37;;;;;;;15.35;9.02;;;12.30;99.90;;;;;;5019574;28;21519;-68
2023/03/21 12:57:06;;;;;;;12.23;8.82;;;12.30;99.90;;;;;;5024320;28;20038;-70
2023/03/21 12:59:47;;;;;;;15.60;8.98;;;12.40;99.90;;;;;;5028197;28;20052;-69